sensor_id;sensor_type;location;lat;lon;timestamp;P1;durP1;ratioP1;P2;durP2;ratioP2
64022;SDS011;50264;52.088;5.296;2023-04-24T00:00:07;2.21;;;1.9;;
64022;SDS011;50264;52.088;5.296;2023-04-24T00:01:45;3.7;;;2.1;;
64022;SDS011;50264;52.088;5.296;2023-04-24T00:04:58;2.4;;;2.21;;
64022;SDS011;50264;52.088;5.296;2023-04-24T00:06:34;2.21;;;2.0;;
64022;SDS011;50264;52.088;5.296;2023-04-24T00:08:11;2.5;;;2.31;;
64022;SDS011;50264;52.088;5.296;2023-04-24T00:09:47;2.9;;;2.6;;
64022;SDS011;50264;52.088;5.296;2023-04-24T00:13:02;2.8;;;2.6;;
64022;SDS011;50264;52.088;5.296;2023-04-24T00:14:38;2.7;;;2.5;;
64022;SDS011;50264;52.088;5.296;2023-04-24T00:16:14;2.5;;;2.31;;
64022;SDS011;50264;52.088;5.296;2023-04-24T00:19:26;3.5;;;3.2;;
64022;SDS011;50264;52.088;5.296;2023-04-24T00:21:04;3.4;;;3.2;;
64022;SDS011;50264;52.088;5.296;2023-04-24T00:22:41;3.8;;;2.7;;
64022;SDS011;50264;52.088;5.296;2023-04-24T00:25:54;4.2;;;2.8;;
64022;SDS011;50264;52.088;5.296;2023-04-24T00:27:30;4.0;;;2.9;;
64022;SDS011;50264;52.088;5.296;2023-04-24T00:29:07;3.6;;;3.3;;
64022;SDS011;50264;52.088;5.296;2023-04-24T00:30:44;3.4;;;2.9;;
64022;SDS011;50264;52.088;5.296;2023-04-24T00:33:57;3.3;;;2.9;;
64022;SDS011;50264;52.088;5.296;2023-04-24T00:35:34;3.3;;;3.0;;
64022;SDS011;50264;52.088;5.296;2023-04-24T00:37:10;4.5;;;3.4;;
64022;SDS011;50264;52.088;5.296;2023-04-24T00:40:22;3.8;;;3.4;;
64022;SDS011;50264;52.088;5.296;2023-04-24T00:41:58;4.61;;;4.0;;
64022;SDS011;50264;52.088;5.296;2023-04-24T00:43:36;5.6;;;4.41;;
64022;SDS011;50264;52.088;5.296;2023-04-24T00:46:49;5.0;;;4.41;;
64022;SDS011;50264;52.088;5.296;2023-04-24T00:48:26;5.11;;;4.0;;
64022;SDS011;50264;52.088;5.296;2023-04-24T00:50:04;5.4;;;4.2;;
64022;SDS011;50264;52.088;5.296;2023-04-24T00:51:42;4.7;;;4.3;;
64022;SDS011;50264;52.088;5.296;2023-04-24T00:54:55;5.5;;;4.8;;
64022;SDS011;50264;52.088;5.296;2023-04-24T00:56:32;5.7;;;5.2;;
64022;SDS011;50264;52.088;5.296;2023-04-24T00:58:10;5.9;;;5.4;;
64022;SDS011;50264;52.088;5.296;2023-04-24T01:01:23;7.1;;;6.4;;
64022;SDS011;50264;52.088;5.296;2023-04-24T01:03:00;7.7;;;6.9;;
64022;SDS011;50264;52.088;5.296;2023-04-24T01:04:40;6.8;;;6.0;;
64022;SDS011;50264;52.088;5.296;2023-04-24T01:06:18;6.6;;;6.0;;
64022;SDS011;50264;52.088;5.296;2023-04-24T01:09:33;6.9;;;6.3;;
64022;SDS011;50264;52.088;5.296;2023-04-24T01:11:11;7.1;;;6.2;;
64022;SDS011;50264;52.088;5.296;2023-04-24T01:12:47;6.9;;;6.1;;
64022;SDS011;50264;52.088;5.296;2023-04-24T01:16:00;7.8;;;6.7;;
64022;SDS011;50264;52.088;5.296;2023-04-24T01:17:39;7.7;;;6.9;;
64022;SDS011;50264;52.088;5.296;2023-04-24T01:19:15;7.4;;;6.7;;
64022;SDS011;50264;52.088;5.296;2023-04-24T01:22:39;7.9;;;7.1;;
64022;SDS011;50264;52.088;5.296;2023-04-24T01:24:16;7.4;;;6.6;;
64022;SDS011;50264;52.088;5.296;2023-04-24T01:25:53;9.0;;;7.2;;
64022;SDS011;50264;52.088;5.296;2023-04-24T01:27:30;7.5;;;6.4;;
64022;SDS011;50264;52.088;5.296;2023-04-24T01:30:45;7.9;;;7.1;;
64022;SDS011;50264;52.088;5.296;2023-04-24T01:32:22;8.31;;;7.2;;
64022;SDS011;50264;52.088;5.296;2023-04-24T01:33:59;7.5;;;6.7;;
64022;SDS011;50264;52.088;5.296;2023-04-24T01:35:35;8.9;;;8.1;;
64022;SDS011;50264;52.088;5.296;2023-04-24T01:38:50;10.9;;;9.0;;
64022;SDS011;50264;52.088;5.296;2023-04-24T01:40:27;10.4;;;9.21;;
64022;SDS011;50264;52.088;5.296;2023-04-24T01:42:04;9.21;;;8.4;;
64022;SDS011;50264;52.088;5.296;2023-04-24T01:45:18;9.6;;;8.6;;
64022;SDS011;50264;52.088;5.296;2023-04-24T01:46:54;13.1;;;8.81;;
64022;SDS011;50264;52.088;5.296;2023-04-24T01:48:31;9.6;;;8.2;;
64022;SDS011;50264;52.088;5.296;2023-04-24T01:51:47;9.6;;;8.71;;
64022;SDS011;50264;52.088;5.296;2023-04-24T01:53:24;11.7;;;8.81;;
64022;SDS011;50264;52.088;5.296;2023-04-24T01:55:01;9.31;;;8.4;;
64022;SDS011;50264;52.088;5.296;2023-04-24T01:56:40;9.0;;;8.2;;
64022;SDS011;50264;52.088;5.296;2023-04-24T01:59:56;10.4;;;9.21;;
64022;SDS011;50264;52.088;5.296;2023-04-24T02:01:33;13.6;;;7.5;;
64022;SDS011;50264;52.088;5.296;2023-04-24T02:03:11;9.0;;;8.1;;
64022;SDS011;50264;52.088;5.296;2023-04-24T02:06:23;9.0;;;8.1;;
64022;SDS011;50264;52.088;5.296;2023-04-24T02:07:59;7.3;;;6.6;;
64022;SDS011;50264;52.088;5.296;2023-04-24T02:09:36;8.0;;;7.3;;
64022;SDS011;50264;52.088;5.296;2023-04-24T02:11:13;9.21;;;7.4;;
64022;SDS011;50264;52.088;5.296;2023-04-24T02:14:26;9.71;;;7.7;;
64022;SDS011;50264;52.088;5.296;2023-04-24T02:16:02;8.4;;;7.0;;
64022;SDS011;50264;52.088;5.296;2023-04-24T02:17:38;8.71;;;7.9;;
64022;SDS011;50264;52.088;5.296;2023-04-24T02:20:51;7.6;;;6.5;;
64022;SDS011;50264;52.088;5.296;2023-04-24T02:22:29;7.7;;;6.9;;
64022;SDS011;50264;52.088;5.296;2023-04-24T02:24:05;7.9;;;7.2;;
64022;SDS011;50264;52.088;5.296;2023-04-24T02:27:18;8.81;;;6.9;;
64022;SDS011;50264;52.088;5.296;2023-04-24T02:28:55;9.21;;;7.2;;
64022;SDS011;50264;52.088;5.296;2023-04-24T02:30:31;8.81;;;7.9;;
64022;SDS011;50264;52.088;5.296;2023-04-24T02:32:09;8.71;;;7.6;;
64022;SDS011;50264;52.088;5.296;2023-04-24T02:35:21;7.6;;;7.0;;
64022;SDS011;50264;52.088;5.296;2023-04-24T02:36:58;9.31;;;8.31;;
64022;SDS011;50264;52.088;5.296;2023-04-24T02:38:35;9.21;;;7.5;;
64022;SDS011;50264;52.088;5.296;2023-04-24T02:41:48;8.71;;;7.8;;
64022;SDS011;50264;52.088;5.296;2023-04-24T02:43:24;8.4;;;7.6;;
64022;SDS011;50264;52.088;5.296;2023-04-24T02:45:02;7.5;;;6.5;;
64022;SDS011;50264;52.088;5.296;2023-04-24T02:48:16;8.0;;;7.2;;
64022;SDS011;50264;52.088;5.296;2023-04-24T02:49:52;6.8;;;6.2;;
64022;SDS011;50264;52.088;5.296;2023-04-24T02:51:28;8.0;;;6.8;;
64022;SDS011;50264;52.088;5.296;2023-04-24T02:53:05;9.1;;;7.0;;
64022;SDS011;50264;52.088;5.296;2023-04-24T02:56:19;6.0;;;5.3;;
64022;SDS011;50264;52.088;5.296;2023-04-24T02:57:56;6.2;;;5.6;;
64022;SDS011;50264;52.088;5.296;2023-04-24T02:59:32;6.2;;;5.6;;
64022;SDS011;50264;52.088;5.296;2023-04-24T03:02:45;7.2;;;6.5;;
64022;SDS011;50264;52.088;5.296;2023-04-24T03:04:22;7.2;;;6.5;;
64022;SDS011;50264;52.088;5.296;2023-04-24T03:05:59;7.4;;;6.5;;
64022;SDS011;50264;52.088;5.296;2023-04-24T03:09:12;7.2;;;6.5;;
64022;SDS011;50264;52.088;5.296;2023-04-24T03:10:49;8.1;;;7.3;;
64022;SDS011;50264;52.088;5.296;2023-04-24T03:12:26;8.0;;;7.2;;
64022;SDS011;50264;52.088;5.296;2023-04-24T03:14:02;8.31;;;7.5;;
64022;SDS011;50264;52.088;5.296;2023-04-24T03:17:16;8.71;;;7.9;;
64022;SDS011;50264;52.088;5.296;2023-04-24T03:18:53;9.0;;;8.1;;
64022;SDS011;50264;52.088;5.296;2023-04-24T03:20:30;9.31;;;8.31;;
64022;SDS011;50264;52.088;5.296;2023-04-24T03:23:44;10.7;;;9.71;;
64022;SDS011;50264;52.088;5.296;2023-04-24T03:25:20;11.0;;;10.0;;
64022;SDS011;50264;52.088;5.296;2023-04-24T03:26:57;11.5;;;10.3;;
64022;SDS011;50264;52.088;5.296;2023-04-24T03:28:34;10.3;;;9.21;;
64022;SDS011;50264;52.088;5.296;2023-04-24T03:31:49;12.4;;;10.5;;
64022;SDS011;50264;52.088;5.296;2023-04-24T03:33:25;12.7;;;10.6;;
64022;SDS011;50264;52.088;5.296;2023-04-24T03:35:02;13.2;;;10.4;;
64022;SDS011;50264;52.088;5.296;2023-04-24T03:38:15;12.2;;;9.9;;
64022;SDS011;50264;52.088;5.296;2023-04-24T03:39:51;12.0;;;10.7;;
64022;SDS011;50264;52.088;5.296;2023-04-24T03:41:29;12.8;;;11.5;;
64022;SDS011;50264;52.088;5.296;2023-04-24T03:44:41;13.5;;;12.2;;
64022;SDS011;50264;52.088;5.296;2023-04-24T03:46:18;12.8;;;11.5;;
64022;SDS011;50264;52.088;5.296;2023-04-24T03:47:55;14.3;;;12.9;;
64022;SDS011;50264;52.088;5.296;2023-04-24T03:49:32;13.6;;;12.2;;
64022;SDS011;50264;52.088;5.296;2023-04-24T03:52:45;15.1;;;12.1;;
64022;SDS011;50264;52.088;5.296;2023-04-24T03:54:23;12.4;;;11.1;;
64022;SDS011;50264;52.088;5.296;2023-04-24T03:55:59;12.4;;;11.1;;
64022;SDS011;50264;52.088;5.296;2023-04-24T03:59:12;11.7;;;10.5;;
64022;SDS011;50264;52.088;5.296;2023-04-24T04:00:48;16.0;;;13.0;;
64022;SDS011;50264;52.088;5.296;2023-04-24T04:02:25;11.6;;;10.4;;
64022;SDS011;50264;52.088;5.296;2023-04-24T04:05:37;9.4;;;8.5;;
64022;SDS011;50264;52.088;5.296;2023-04-24T04:07:15;9.71;;;8.6;;
64022;SDS011;50264;52.088;5.296;2023-04-24T04:08:52;7.8;;;7.1;;
64022;SDS011;50264;52.088;5.296;2023-04-24T04:10:29;8.6;;;7.7;;
64022;SDS011;50264;52.088;5.296;2023-04-24T04:13:43;7.9;;;7.1;;
64022;SDS011;50264;52.088;5.296;2023-04-24T04:15:20;9.31;;;7.4;;
64022;SDS011;50264;52.088;5.296;2023-04-24T04:16:57;7.1;;;6.4;;
64022;SDS011;50264;52.088;5.296;2023-04-24T04:20:11;8.6;;;7.5;;
64022;SDS011;50264;52.088;5.296;2023-04-24T04:21:47;7.8;;;6.9;;
64022;SDS011;50264;52.088;5.296;2023-04-24T04:23:23;8.9;;;8.0;;
64022;SDS011;50264;52.088;5.296;2023-04-24T04:26:37;8.1;;;7.1;;
64022;SDS011;50264;52.088;5.296;2023-04-24T04:28:14;9.6;;;7.6;;
64022;SDS011;50264;52.088;5.296;2023-04-24T04:29:51;9.5;;;8.6;;
64022;SDS011;50264;52.088;5.296;2023-04-24T04:31:27;11.2;;;9.1;;
64022;SDS011;50264;52.088;5.296;2023-04-24T04:34:39;13.1;;;9.1;;
64022;SDS011;50264;52.088;5.296;2023-04-24T04:36:15;10.6;;;9.31;;
64022;SDS011;50264;52.088;5.296;2023-04-24T04:37:51;11.4;;;8.9;;
64022;SDS011;50264;52.088;5.296;2023-04-24T04:41:04;11.1;;;9.21;;
64022;SDS011;50264;52.088;5.296;2023-04-24T04:42:40;16.0;;;11.6;;
64022;SDS011;50264;52.088;5.296;2023-04-24T04:44:16;11.4;;;9.6;;
64022;SDS011;50264;52.088;5.296;2023-04-24T04:47:28;12.8;;;9.71;;
64022;SDS011;50264;52.088;5.296;2023-04-24T04:49:04;11.2;;;10.0;;
64022;SDS011;50264;52.088;5.296;2023-04-24T04:50:40;12.1;;;10.8;;
64022;SDS011;50264;52.088;5.296;2023-04-24T04:52:16;13.2;;;10.7;;
64022;SDS011;50264;52.088;5.296;2023-04-24T04:55:30;16.61;;;11.7;;
64022;SDS011;50264;52.088;5.296;2023-04-24T04:57:06;12.7;;;11.3;;
64022;SDS011;50264;52.088;5.296;2023-04-24T04:58:42;12.3;;;10.7;;
64022;SDS011;50264;52.088;5.296;2023-04-24T05:01:55;17.41;;;12.1;;
64022;SDS011;50264;52.088;5.296;2023-04-24T05:03:31;14.5;;;10.3;;
64022;SDS011;50264;52.088;5.296;2023-04-24T05:05:07;13.7;;;10.3;;
64022;SDS011;50264;52.088;5.296;2023-04-24T05:08:20;13.6;;;10.8;;
64022;SDS011;50264;52.088;5.296;2023-04-24T05:09:57;10.8;;;9.1;;
64022;SDS011;50264;52.088;5.296;2023-04-24T05:11:33;11.3;;;7.6;;
64022;SDS011;50264;52.088;5.296;2023-04-24T05:13:09;15.5;;;10.7;;
64022;SDS011;50264;52.088;5.296;2023-04-24T05:16:21;11.8;;;9.4;;
64022;SDS011;50264;52.088;5.296;2023-04-24T05:17:57;14.7;;;11.1;;
64022;SDS011;50264;52.088;5.296;2023-04-24T05:19:34;14.9;;;10.8;;
64022;SDS011;50264;52.088;5.296;2023-04-24T05:22:46;11.0;;;9.4;;
64022;SDS011;50264;52.088;5.296;2023-04-24T05:24:23;17.5;;;9.4;;
64022;SDS011;50264;52.088;5.296;2023-04-24T05:25:59;11.7;;;10.0;;
64022;SDS011;50264;52.088;5.296;2023-04-24T05:29:12;12.9;;;9.81;;
64022;SDS011;50264;52.088;5.296;2023-04-24T05:30:48;12.2;;;9.9;;
64022;SDS011;50264;52.088;5.296;2023-04-24T05:32:24;14.8;;;10.1;;
64022;SDS011;50264;52.088;5.296;2023-04-24T05:35:36;10.8;;;9.5;;
64022;SDS011;50264;52.088;5.296;2023-04-24T05:37:13;11.2;;;9.9;;
64022;SDS011;50264;52.088;5.296;2023-04-24T05:38:49;13.5;;;10.4;;
64022;SDS011;50264;52.088;5.296;2023-04-24T05:40:25;14.9;;;11.3;;
64022;SDS011;50264;52.088;5.296;2023-04-24T05:43:38;15.9;;;11.0;;
64022;SDS011;50264;52.088;5.296;2023-04-24T05:45:14;15.9;;;11.0;;
64022;SDS011;50264;52.088;5.296;2023-04-24T05:46:50;9.1;;;8.2;;
64022;SDS011;50264;52.088;5.296;2023-04-24T05:50:03;8.0;;;7.0;;
64022;SDS011;50264;52.088;5.296;2023-04-24T05:51:41;12.6;;;8.31;;
64022;SDS011;50264;52.088;5.296;2023-04-24T05:53:17;11.2;;;5.9;;
64022;SDS011;50264;52.088;5.296;2023-04-24T05:56:29;5.2;;;4.41;;
64022;SDS011;50264;52.088;5.296;2023-04-24T05:58:06;4.7;;;3.7;;
64022;SDS011;50264;52.088;5.296;2023-04-24T05:59:42;3.8;;;3.1;;
64022;SDS011;50264;52.088;5.296;2023-04-24T06:01:18;2.8;;;2.31;;
64022;SDS011;50264;52.088;5.296;2023-04-24T06:04:31;3.8;;;2.31;;
64022;SDS011;50264;52.088;5.296;2023-04-24T06:06:08;2.0;;;1.9;;
64022;SDS011;50264;52.088;5.296;2023-04-24T06:07:44;3.7;;;2.4;;
64022;SDS011;50264;52.088;5.296;2023-04-24T06:10:56;5.11;;;2.4;;
64022;SDS011;50264;52.088;5.296;2023-04-24T06:12:32;4.1;;;2.21;;
64022;SDS011;50264;52.088;5.296;2023-04-24T06:14:09;6.5;;;2.31;;
64022;SDS011;50264;52.088;5.296;2023-04-24T06:17:21;3.5;;;2.31;;
64022;SDS011;50264;52.088;5.296;2023-04-24T06:18:57;3.1;;;2.1;;
64022;SDS011;50264;52.088;5.296;2023-04-24T06:20:33;2.1;;;1.5;;
64022;SDS011;50264;52.088;5.296;2023-04-24T06:23:45;2.8;;;1.8;;
64022;SDS011;50264;52.088;5.296;2023-04-24T06:25:24;2.5;;;2.0;;
64022;SDS011;50264;52.088;5.296;2023-04-24T06:27:01;2.21;;;1.9;;
64022;SDS011;50264;52.088;5.296;2023-04-24T06:28:37;4.3;;;1.9;;
64022;SDS011;50264;52.088;5.296;2023-04-24T06:31:50;5.5;;;2.5;;
64022;SDS011;50264;52.088;5.296;2023-04-24T06:33:26;4.2;;;2.21;;
64022;SDS011;50264;52.088;5.296;2023-04-24T06:35:02;2.4;;;2.21;;
64022;SDS011;50264;52.088;5.296;2023-04-24T06:38:15;4.8;;;3.0;;
64022;SDS011;50264;52.088;5.296;2023-04-24T06:39:52;5.7;;;3.7;;
64022;SDS011;50264;52.088;5.296;2023-04-24T06:41:28;5.0;;;4.5;;
64022;SDS011;50264;52.088;5.296;2023-04-24T06:44:40;5.3;;;4.5;;
64022;SDS011;50264;52.088;5.296;2023-04-24T06:46:16;7.6;;;4.41;;
64022;SDS011;50264;52.088;5.296;2023-04-24T06:47:52;6.7;;;5.6;;
64022;SDS011;50264;52.088;5.296;2023-04-24T06:49:28;7.2;;;6.0;;
64022;SDS011;50264;52.088;5.296;2023-04-24T06:52:41;9.81;;;7.2;;
64022;SDS011;50264;52.088;5.296;2023-04-24T06:54:17;9.21;;;7.7;;
64022;SDS011;50264;52.088;5.296;2023-04-24T06:55:53;13.9;;;10.5;;
64022;SDS011;50264;52.088;5.296;2023-04-24T06:59:06;17.91;;;12.3;;
64022;SDS011;50264;52.088;5.296;2023-04-24T07:00:42;18.0;;;12.1;;
64022;SDS011;50264;52.088;5.296;2023-04-24T07:02:18;18.8;;;13.2;;
64022;SDS011;50264;52.088;5.296;2023-04-24T07:05:31;18.8;;;13.2;;
64022;SDS011;50264;52.088;5.296;2023-04-24T07:07:07;20.0;;;15.6;;
64022;SDS011;50264;52.088;5.296;2023-04-24T07:08:43;18.41;;;15.0;;
64022;SDS011;50264;52.088;5.296;2023-04-24T07:10:19;27.6;;;17.5;;
64022;SDS011;50264;52.088;5.296;2023-04-24T07:13:31;24.4;;;16.5;;
64022;SDS011;50264;52.088;5.296;2023-04-24T07:15:08;24.0;;;16.9;;
64022;SDS011;50264;52.088;5.296;2023-04-24T07:16:45;21.6;;;14.3;;
64022;SDS011;50264;52.088;5.296;2023-04-24T07:19:58;22.6;;;15.4;;
64022;SDS011;50264;52.088;5.296;2023-04-24T07:21:34;26.6;;;15.0;;
64022;SDS011;50264;52.088;5.296;2023-04-24T07:23:10;25.7;;;15.5;;
64022;SDS011;50264;52.088;5.296;2023-04-24T07:26:22;23.9;;;15.8;;
64022;SDS011;50264;52.088;5.296;2023-04-24T07:27:59;24.3;;;16.3;;
64022;SDS011;50264;52.088;5.296;2023-04-24T07:29:35;27.3;;;17.0;;
64022;SDS011;50264;52.088;5.296;2023-04-24T07:32:49;27.6;;;15.9;;
64022;SDS011;50264;52.088;5.296;2023-04-24T07:34:25;21.8;;;17.0;;
64022;SDS011;50264;52.088;5.296;2023-04-24T07:36:01;24.6;;;14.6;;
64022;SDS011;50264;52.088;5.296;2023-04-24T07:37:37;27.4;;;14.7;;
64022;SDS011;50264;52.088;5.296;2023-04-24T07:40:51;25.4;;;16.3;;
64022;SDS011;50264;52.088;5.296;2023-04-24T07:42:28;24.5;;;16.5;;
64022;SDS011;50264;52.088;5.296;2023-04-24T07:44:04;21.6;;;15.3;;
64022;SDS011;50264;52.088;5.296;2023-04-24T07:47:16;21.7;;;14.8;;
64022;SDS011;50264;52.088;5.296;2023-04-24T07:48:52;25.4;;;15.4;;
64022;SDS011;50264;52.088;5.296;2023-04-24T07:50:28;23.7;;;15.6;;
64022;SDS011;50264;52.088;5.296;2023-04-24T07:53:42;22.5;;;16.4;;
64022;SDS011;50264;52.088;5.296;2023-04-24T07:55:19;25.6;;;16.7;;
64022;SDS011;50264;52.088;5.296;2023-04-24T07:56:56;24.8;;;15.6;;
64022;SDS011;50264;52.088;5.296;2023-04-24T07:58:32;25.4;;;14.4;;
64022;SDS011;50264;52.088;5.296;2023-04-24T08:01:45;23.7;;;13.8;;
64022;SDS011;50264;52.088;5.296;2023-04-24T08:03:21;25.6;;;13.6;;
64022;SDS011;50264;52.088;5.296;2023-04-24T08:04:57;26.2;;;12.6;;
64022;SDS011;50264;52.088;5.296;2023-04-24T08:08:10;27.9;;;12.7;;
64022;SDS011;50264;52.088;5.296;2023-04-24T08:09:46;28.7;;;12.1;;
64022;SDS011;50264;52.088;5.296;2023-04-24T08:11:22;25.4;;;12.4;;
64022;SDS011;50264;52.088;5.296;2023-04-24T08:14:35;31.0;;;11.7;;
64022;SDS011;50264;52.088;5.296;2023-04-24T08:16:11;27.8;;;11.8;;
64022;SDS011;50264;52.088;5.296;2023-04-24T08:17:47;27.1;;;10.5;;
64022;SDS011;50264;52.088;5.296;2023-04-24T08:19:24;28.8;;;9.0;;
64022;SDS011;50264;52.088;5.296;2023-04-24T08:22:36;30.8;;;9.21;;
64022;SDS011;50264;52.088;5.296;2023-04-24T08:24:12;26.2;;;9.71;;
64022;SDS011;50264;52.088;5.296;2023-04-24T08:25:48;28.0;;;8.81;;
64022;SDS011;50264;52.088;5.296;2023-04-24T08:29:01;23.2;;;7.7;;
64022;SDS011;50264;52.088;5.296;2023-04-24T08:30:37;29.9;;;8.31;;
64022;SDS011;50264;52.088;5.296;2023-04-24T08:32:15;26.6;;;7.4;;
64022;SDS011;50264;52.088;5.296;2023-04-24T08:35:27;19.61;;;7.4;;
64022;SDS011;50264;52.088;5.296;2023-04-24T08:37:03;23.2;;;5.8;;
64022;SDS011;50264;52.088;5.296;2023-04-24T08:38:39;30.3;;;6.9;;
64022;SDS011;50264;52.088;5.296;2023-04-24T08:40:16;21.5;;;6.9;;
64022;SDS011;50264;52.088;5.296;2023-04-24T08:43:29;24.5;;;6.3;;
64022;SDS011;50264;52.088;5.296;2023-04-24T08:45:09;26.7;;;6.5;;
64022;SDS011;50264;52.088;5.296;2023-04-24T08:46:47;20.2;;;5.9;;
64022;SDS011;50264;52.088;5.296;2023-04-24T08:50:02;25.8;;;5.9;;
64022;SDS011;50264;52.088;5.296;2023-04-24T08:51:38;17.0;;;5.6;;
64022;SDS011;50264;52.088;5.296;2023-04-24T08:53:15;16.2;;;4.5;;
64022;SDS011;50264;52.088;5.296;2023-04-24T08:54:53;16.61;;;5.0;;
64022;SDS011;50264;52.088;5.296;2023-04-24T08:58:10;15.8;;;4.8;;
64022;SDS011;50264;52.088;5.296;2023-04-24T08:59:46;13.0;;;4.8;;
64022;SDS011;50264;52.088;5.296;2023-04-24T09:01:22;13.4;;;4.41;;
64022;SDS011;50264;52.088;5.296;2023-04-24T09:04:40;12.2;;;4.0;;
64022;SDS011;50264;52.088;5.296;2023-04-24T09:06:18;11.4;;;3.9;;
64022;SDS011;50264;52.088;5.296;2023-04-24T09:07:57;13.6;;;4.2;;
64022;SDS011;50264;52.088;5.296;2023-04-24T09:09:38;15.9;;;4.5;;
64022;SDS011;50264;52.088;5.296;2023-04-24T09:12:52;20.7;;;5.2;;
64022;SDS011;50264;52.088;5.296;2023-04-24T09:14:29;19.2;;;4.8;;
64022;SDS011;50264;52.088;5.296;2023-04-24T09:16:06;15.8;;;4.2;;
64022;SDS011;50264;52.088;5.296;2023-04-24T09:19:19;13.5;;;4.3;;
64022;SDS011;50264;52.088;5.296;2023-04-24T09:20:57;15.3;;;5.2;;
64022;SDS011;50264;52.088;5.296;2023-04-24T09:22:34;18.11;;;4.7;;
64022;SDS011;50264;52.088;5.296;2023-04-24T09:24:14;24.3;;;5.11;;
64022;SDS011;50264;52.088;5.296;2023-04-24T09:27:31;16.3;;;4.5;;
64022;SDS011;50264;52.088;5.296;2023-04-24T09:29:08;17.8;;;4.7;;
64022;SDS011;50264;52.088;5.296;2023-04-24T09:30:55;19.91;;;4.8;;
64022;SDS011;50264;52.088;5.296;2023-04-24T09:32:38;15.9;;;4.61;;
64022;SDS011;50264;52.088;5.296;2023-04-24T09:35:57;16.8;;;4.1;;
64022;SDS011;50264;52.088;5.296;2023-04-24T09:37:35;17.0;;;4.7;;
64022;SDS011;50264;52.088;5.296;2023-04-24T09:39:13;13.3;;;4.8;;
64022;SDS011;50264;52.088;5.296;2023-04-24T09:42:28;13.0;;;3.7;;
64022;SDS011;50264;52.088;5.296;2023-04-24T09:44:10;12.4;;;4.3;;
64022;SDS011;50264;52.088;5.296;2023-04-24T09:45:48;11.7;;;3.8;;
64022;SDS011;50264;52.088;5.296;2023-04-24T09:47:24;14.4;;;4.2;;
64022;SDS011;50264;52.088;5.296;2023-04-24T09:50:45;17.8;;;4.8;;
64022;SDS011;50264;52.088;5.296;2023-04-24T09:52:22;16.5;;;4.2;;
64022;SDS011;50264;52.088;5.296;2023-04-24T09:53:58;20.8;;;4.2;;
64022;SDS011;50264;52.088;5.296;2023-04-24T09:55:37;11.9;;;3.7;;
64022;SDS011;50264;52.088;5.296;2023-04-24T09:58:51;13.5;;;3.8;;
64022;SDS011;50264;52.088;5.296;2023-04-24T10:00:28;9.9;;;3.8;;
64022;SDS011;50264;52.088;5.296;2023-04-24T10:02:15;13.0;;;4.0;;
64022;SDS011;50264;52.088;5.296;2023-04-24T10:05:29;11.6;;;4.0;;
64022;SDS011;50264;52.088;5.296;2023-04-24T10:07:07;13.3;;;3.5;;
64022;SDS011;50264;52.088;5.296;2023-04-24T10:08:43;8.2;;;3.1;;
64022;SDS011;50264;52.088;5.296;2023-04-24T10:10:20;8.6;;;2.8;;
64022;SDS011;50264;52.088;5.296;2023-04-24T10:13:35;15.6;;;2.9;;
64022;SDS011;50264;52.088;5.296;2023-04-24T10:15:11;11.1;;;2.6;;
64022;SDS011;50264;52.088;5.296;2023-04-24T10:16:49;7.9;;;3.0;;
64022;SDS011;50264;52.088;5.296;2023-04-24T10:20:06;14.2;;;2.9;;
64022;SDS011;50264;52.088;5.296;2023-04-24T10:21:43;9.81;;;2.5;;
64022;SDS011;50264;52.088;5.296;2023-04-24T10:23:20;7.9;;;2.6;;
64022;SDS011;50264;52.088;5.296;2023-04-24T10:24:57;8.31;;;2.6;;
64022;SDS011;50264;52.088;5.296;2023-04-24T10:28:11;8.71;;;2.4;;
64022;SDS011;50264;52.088;5.296;2023-04-24T10:29:48;8.4;;;2.21;;
64022;SDS011;50264;52.088;5.296;2023-04-24T10:31:30;9.6;;;2.31;;
64022;SDS011;50264;52.088;5.296;2023-04-24T10:34:44;5.3;;;1.7;;
64022;SDS011;50264;52.088;5.296;2023-04-24T10:36:21;7.4;;;2.1;;
64022;SDS011;50264;52.088;5.296;2023-04-24T10:37:59;4.61;;;1.5;;
64022;SDS011;50264;52.088;5.296;2023-04-24T10:39:41;5.7;;;2.1;;
64022;SDS011;50264;52.088;5.296;2023-04-24T10:42:54;4.1;;;1.5;;
64022;SDS011;50264;52.088;5.296;2023-04-24T10:44:35;2.4;;;1.11;;
64022;SDS011;50264;52.088;5.296;2023-04-24T10:46:16;7.3;;;1.7;;
64022;SDS011;50264;52.088;5.296;2023-04-24T10:47:57;2.5;;;1.4;;
64022;SDS011;50264;52.088;5.296;2023-04-24T10:51:12;6.3;;;1.6;;
64022;SDS011;50264;52.088;5.296;2023-04-24T10:52:48;4.5;;;1.6;;
64022;SDS011;50264;52.088;5.296;2023-04-24T10:54:25;5.6;;;1.7;;
64022;SDS011;50264;52.088;5.296;2023-04-24T10:58:01;5.2;;;1.6;;
64022;SDS011;50264;52.088;5.296;2023-04-24T10:59:38;5.7;;;1.2;;
64022;SDS011;50264;52.088;5.296;2023-04-24T11:01:30;4.7;;;1.3;;
64022;SDS011;50264;52.088;5.296;2023-04-24T11:03:22;2.7;;;1.11;;
64022;SDS011;50264;52.088;5.296;2023-04-24T11:05:02;4.0;;;1.4;;
64022;SDS011;50264;52.088;5.296;2023-04-24T11:08:22;4.3;;;1.6;;
64022;SDS011;50264;52.088;5.296;2023-04-24T11:10:00;4.7;;;1.6;;
64022;SDS011;50264;52.088;5.296;2023-04-24T11:11:37;2.7;;;1.5;;
64022;SDS011;50264;52.088;5.296;2023-04-24T11:13:15;4.3;;;1.7;;
64022;SDS011;50264;52.088;5.296;2023-04-24T11:16:38;6.4;;;2.0;;
64022;SDS011;50264;52.088;5.296;2023-04-24T11:18:36;6.6;;;1.6;;
64022;SDS011;50264;52.088;5.296;2023-04-24T11:20:16;4.91;;;1.8;;
64022;SDS011;50264;52.088;5.296;2023-04-24T11:21:54;4.2;;;1.8;;
64022;SDS011;50264;52.088;5.296;2023-04-24T11:23:35;6.0;;;1.8;;
64022;SDS011;50264;52.088;5.296;2023-04-24T11:26:47;5.8;;;2.31;;
64022;SDS011;50264;52.088;5.296;2023-04-24T11:28:23;5.7;;;2.21;;
64022;SDS011;50264;52.088;5.296;2023-04-24T11:30:00;6.0;;;2.0;;
64022;SDS011;50264;52.088;5.296;2023-04-24T11:33:16;7.3;;;2.5;;
64022;SDS011;50264;52.088;5.296;2023-04-24T11:34:56;9.4;;;2.7;;
64022;SDS011;50264;52.088;5.296;2023-04-24T11:36:34;4.91;;;1.8;;
64022;SDS011;50264;52.088;5.296;2023-04-24T11:38:11;6.4;;;2.21;;
64022;SDS011;50264;52.088;5.296;2023-04-24T11:41:28;7.7;;;2.6;;
64022;SDS011;50264;52.088;5.296;2023-04-24T11:43:05;5.7;;;1.8;;
64022;SDS011;50264;52.088;5.296;2023-04-24T11:44:42;9.71;;;1.6;;
64022;SDS011;50264;52.088;5.296;2023-04-24T11:47:56;7.2;;;1.4;;
64022;SDS011;50264;52.088;5.296;2023-04-24T11:49:33;2.9;;;0.9;;
64022;SDS011;50264;52.088;5.296;2023-04-24T11:51:12;3.3;;;1.0;;
64022;SDS011;50264;52.088;5.296;2023-04-24T11:52:49;3.3;;;1.3;;
64022;SDS011;50264;52.088;5.296;2023-04-24T11:56:02;2.4;;;1.0;;
64022;SDS011;50264;52.088;5.296;2023-04-24T11:57:39;2.21;;;1.0;;
64022;SDS011;50264;52.088;5.296;2023-04-24T11:59:17;2.6;;;1.11;;
64022;SDS011;50264;52.088;5.296;2023-04-24T12:02:32;4.0;;;1.2;;
64022;SDS011;50264;52.088;5.296;2023-04-24T12:04:08;1.9;;;1.2;;
64022;SDS011;50264;52.088;5.296;2023-04-24T12:05:44;4.1;;;1.3;;
64022;SDS011;50264;52.088;5.296;2023-04-24T12:08:59;2.8;;;1.2;;
64022;SDS011;50264;52.088;5.296;2023-04-24T12:10:35;5.0;;;1.5;;
64022;SDS011;50264;52.088;5.296;2023-04-24T12:12:11;5.4;;;1.4;;
64022;SDS011;50264;52.088;5.296;2023-04-24T12:13:48;4.8;;;1.7;;
64022;SDS011;50264;52.088;5.296;2023-04-24T12:17:01;5.8;;;1.7;;
64022;SDS011;50264;52.088;5.296;2023-04-24T12:18:42;7.2;;;1.9;;
64022;SDS011;50264;52.088;5.296;2023-04-24T12:20:23;6.2;;;1.9;;
64022;SDS011;50264;52.088;5.296;2023-04-24T12:22:01;6.1;;;1.7;;
64022;SDS011;50264;52.088;5.296;2023-04-24T12:25:18;5.9;;;1.7;;
64022;SDS011;50264;52.088;5.296;2023-04-24T12:26:56;9.5;;;1.7;;
64022;SDS011;50264;52.088;5.296;2023-04-24T12:28:35;5.2;;;1.9;;
64022;SDS011;50264;52.088;5.296;2023-04-24T12:31:51;10.4;;;2.4;;
64022;SDS011;50264;52.088;5.296;2023-04-24T12:33:27;6.8;;;2.4;;
64022;SDS011;50264;52.088;5.296;2023-04-24T12:35:09;6.4;;;1.9;;
64022;SDS011;50264;52.088;5.296;2023-04-24T12:36:45;8.4;;;2.21;;
64022;SDS011;50264;52.088;5.296;2023-04-24T12:40:03;9.31;;;2.21;;
64022;SDS011;50264;52.088;5.296;2023-04-24T12:41:48;8.6;;;1.8;;
64022;SDS011;50264;52.088;5.296;2023-04-24T12:43:27;6.5;;;2.4;;
64022;SDS011;50264;52.088;5.296;2023-04-24T12:45:04;7.6;;;2.4;;
64022;SDS011;50264;52.088;5.296;2023-04-24T12:48:18;17.3;;;3.2;;